• Join FlightAware (Why Join?)
  • Login
  • US Flag 
05:43AM EDT


 

Airport Tracker/Info


-or-


 

Live Flight TrackerFlight Track Log ✈ N682RW ✈ 26-Apr-2013 ✈ KDTW - KDAL

Flight Track Log - Related Links

Times and Time Zones

All times are in EDT time to prevent confusion due to time zone crossing. See the N682RW flight status page for this flight to view local times or setup timezone preferences in your user account.

Time Position Orientation Groundspeed Altitude Reporting Facility
EDT Latitude Longitude Course Direction KTS MPH feet Rate Location/Type
03:13PM 42.1869 -83.3631 292° West 182 209 1,500  Level Cleveland Center
03:14PM 42.1522 -83.4206 231° Southwest 232 267 3,800 2,520 Climbing Cleveland Center
03:15PM 42.1067 -83.4911 229° Southwest 269 310 6,400 2,640 Climbing Cleveland Center
03:16PM 42.1089 -83.5642 272° West 267 307 8,800 1,320 Climbing Cleveland Center
03:17PM 42.1486 -83.6333 308° West 274 315 8,900 1,140 Climbing Cleveland Center
03:18PM 42.1903 -83.7136 305° West 269 310 11,100 1,740 Climbing Cleveland Center
03:19PM 42.4150 -84.1445 292° West  Level FlightAware Approximate
03:19PM 42.2378 -83.8031 306° West 277 319 12,400  Level Cleveland Center
03:20PM 42.2889 -83.9122 302° West 313 360 14,900 2,400 Climbing Cleveland Center
03:21PM 42.3419 -84.0247 303° West 343 395 17,300 2,040 Climbing Cleveland Center
03:23PM 42.4289 -84.2217 301° West 368 423 20,500 1,860 Climbing Chicago Center
03:23PM 42.4283 -84.2656 269° West 353 406 21,100 2,100 Climbing Cleveland Center
03:24PM 42.4319 -84.4067 272° West 358 412 23,200 2,220 Climbing Cleveland Center
03:25PM 42.4336 -84.5475 271° West 371 427 25,600 1,920 Climbing Cleveland Center
03:26PM 42.4400 -84.6672 274° West 366 421 26,800 1,380 Climbing Chicago Center
03:27PM 42.4431 -84.8078 272° West 373 429 28,200 1,200 Climbing Chicago Center
03:28PM 42.4469 -84.9517 272° West 380 437 29,300 1,680 Climbing Chicago Center
03:29PM 42.4489 -85.0911 271° West 377 434 31,700 1,260 Climbing Chicago Center
03:30PM 42.4514 -85.2233 272° West 358 412 32,000 120 Climbing Chicago Center
03:31PM 42.4550 -85.3936 272° West 369 425 32,000  Level Chicago Center
03:32PM 42.4567 -85.5356 271° West 376 433 32,000  Level Chicago Center
03:33PM 42.4600 -85.6733 272° West 370 426 32,000  Level Chicago Center
03:34PM 42.4619 -85.8139 271° West 373 429 32,000  Level Chicago Center
03:35PM 42.4633 -85.9536 271° West 372 428 32,000  Level Chicago Center
03:36PM 42.4658 -86.0950 271° West 374 430 32,000  Level Chicago Center
03:37PM 42.4453 -86.2644 261° West 378 435 32,000  Level Chicago Center
03:38PM 42.4283 -86.4047 261° West 377 434 32,000  Level Chicago Center
03:39PM 42.4097 -86.5433 260° West 375 432 32,000  Level Chicago Center
03:40PM 42.3936 -86.6764 261° West 378 435 32,000  Level Chicago Center
03:41PM 42.3728 -86.8419 260° West 377 434 32,000  Level Chicago Center
03:42PM 42.3550 -86.9808 260° West 376 433 32,000  Level Chicago Center
03:43PM 42.3364 -87.1161 260° West 371 427 32,000  Level Chicago Center
03:44PM 42.3178 -87.2489 259° West 365 420 32,000  Level Chicago Center
03:45PM 42.3003 -87.3850 260° West 369 425 32,000  Level Chicago Center
03:46PM 42.2783 -87.5497 260° West 374 430 32,000  Level Chicago Center
03:47PM 42.2583 -87.6864 259° West 375 432 32,000  Level Chicago Center
03:48PM 42.2386 -87.8236 259° West 377 434 32,000  Level Chicago Center
03:49PM 42.2192 -87.9578 259° West 371 427 32,000  Level Chicago Center
03:51PM 42.1781 -88.0875 247° West 379 436 32,000  Level Chicago Center
03:52PM 42.1292 -88.2383 246° West 373 429 32,000  Level Chicago Center
03:53PM 42.0872 -88.3664 246° West 377 434 32,000  Level Chicago Center
03:54PM 42.0467 -88.4928 247° West 373 429 32,000  Level Chicago Center
03:55PM 42.0039 -88.6206 246° West 377 434 32,000  Level Chicago Center
03:56PM 41.9619 -88.7489 246° West 380 437 32,000  Level Chicago Center
03:57PM 41.9114 -88.9036 246° West 382 440 32,000  Level Chicago Center
03:58PM 41.8692 -89.0311 246° West 378 435 32,000  Level Chicago Center
03:59PM 41.8269 -89.1583 246° West 377 434 32,000  Level Chicago Center
04:00PM 41.7844 -89.2844 246° West 375 432 32,000  Level Chicago Center
04:01PM 41.7333 -89.4386 246° West 378 435 32,000  Level Chicago Center
04:02PM 41.6908 -89.5633 246° West 380 437 32,000  Level Chicago Center
04:03PM 41.6489 -89.6908 246° West 377 434 32,000  Level Chicago Center
04:04PM 41.6039 -89.8211 245° Southwest 386 444 32,000 480 Level Chicago Center
04:05PM 41.5600 -89.9511 246° West 387 445 33,100 960 Climbing Chicago Center
04:06PM 41.5069 -90.0692 239° Southwest 378 435 34,000 420 Climbing Chicago Center
04:07PM 41.4122 -90.1875 223° Southwest 389 448 34,000  Level Chicago Center
04:08PM 41.3311 -90.2833 222° Southwest 392 451 34,000  Level Chicago Center
04:09PM 41.2497 -90.3794 222° Southwest 392 451 34,000  Level Chicago Center
04:10PM 41.1692 -90.4731 221° Southwest 388 447 34,000  Level Chicago Center
04:11PM 41.0908 -90.5678 222° Southwest 385 443 34,000  Level Chicago Center
04:12PM 40.9942 -90.6803 221° Southwest 387 445 34,000  Level Chicago Center
04:13PM 40.9131 -90.7725 221° Southwest 386 444 34,000  Level Chicago Center
04:14PM 40.8342 -90.8658 222° Southwest 382 440 34,000  Level Chicago Center
04:15PM 40.7556 -90.9575 221° Southwest 380 437 34,000  Level Chicago Center
04:16PM 40.6756 -91.0500 221° Southwest 383 441 34,000  Level Chicago Center
04:17PM 40.5792 -91.1586 221° Southwest 381 438 34,000  Level Chicago Center
04:18PM 40.4992 -91.2506 221° Southwest 382 440 34,000  Level Chicago Center
04:19PM 40.4183 -91.3450 222° Southwest 377 434 34,000  Level Chicago Center
04:21PM 40.3389 -91.4344 221° Southwest 377 434 34,000  Level Chicago Center
04:21PM 40.3067 -91.4700 220° Southwest 377 434 34,000  Level Kansas City Center
04:22PM 40.2275 -91.5611 221° Southwest 379 436 34,000  Level Kansas City Center
04:23PM 40.1297 -91.6703 221° Southwest 384 442 34,000  Level Kansas City Center
04:24PM 40.0506 -91.7600 221° Southwest 381 438 34,000  Level Kansas City Center
04:25PM 39.9706 -91.8506 221° Southwest 382 440 34,000  Level Kansas City Center
04:26PM 39.8908 -91.9397 221° Southwest 379 436 34,000  Level Kansas City Center
04:27PM 39.8114 -92.0269 220° Southwest 377 434 34,000  Level Kansas City Center
04:28PM 39.7331 -92.1153 221° Southwest 374 430 34,000  Level Kansas City Center
04:29PM 39.6361 -92.2214 220° Southwest 378 435 34,000  Level Kansas City Center
04:30PM 39.5553 -92.3117 221° Southwest 383 441 34,000  Level Kansas City Center
04:31PM 39.4750 -92.3992 220° Southwest 380 437 34,000  Level Kansas City Center
04:32PM 39.3947 -92.4867 220° Southwest 379 436 34,000  Level Kansas City Center
04:33PM 39.3136 -92.5764 221° Southwest 382 440 34,000  Level Kansas City Center
04:34PM 39.2189 -92.6806 220° Southwest 379 436 34,000  Level Kansas City Center
04:35PM 39.1397 -92.7661 220° Southwest 376 433 34,000  Level Kansas City Center
04:37PM 39.0581 -92.8517 219° Southwest 378 435 34,000  Level Kansas City Center
04:38PM 38.9756 -92.9419 220° Southwest 380 437 34,000  Level Kansas City Center
04:39PM 38.8944 -93.0300 220° Southwest 380 437 34,000  Level Kansas City Center
04:40PM 38.8111 -93.1186 220° Southwest 385 443 34,000  Level Kansas City Center
04:41PM 38.7128 -93.2244 220° Southwest 386 444 34,000  Level Kansas City Center
04:42PM 38.6297 -93.3133 220° Southwest 387 445 34,000  Level Kansas City Center
04:43PM 38.5469 -93.4014 220° Southwest 388 447 34,000  Level Kansas City Center
04:44PM 38.4633 -93.4897 220° Southwest 388 447 34,000  Level Kansas City Center
04:45PM 38.3781 -93.5794 220° Southwest 393 452 34,000  Level Kansas City Center
04:46PM 38.2939 -93.6675 219° Southwest 394 453 34,000  Level Kansas City Center
04:47PM 38.1939 -93.7831 222° Southwest 403 464 34,000  Level Kansas City Center
04:48PM 38.1267 -93.8933 232° Southwest 398 458 34,000  Level Kansas City Center
04:49PM 38.0619 -94.0042 233° Southwest 392 451 34,000  Level Kansas City Center
04:50PM 37.9933 -94.1153 232° Southwest 393 452 34,000  Level Kansas City Center
04:51PM 37.9275 -94.2233 232° Southwest 392 451 34,000  Level Kansas City Center
04:52PM 37.8628 -94.3319 233° Southwest 388 447 34,000  Level Kansas City Center
04:53PM 37.7961 -94.4447 233° Southwest 384 442 34,000  Level Kansas City Center
04:54PM 37.7217 -94.5661 232° Southwest 388 447 34,000  Level Kansas City Center
04:55PM 37.6561 -94.6728 232° Southwest 385 443 34,000  Level Kansas City Center
04:56PM 37.5917 -94.7806 233° Southwest 385 443 34,000  Level Kansas City Center
04:57PM 37.5283 -94.8881 233° Southwest 384 442 34,000  Level Kansas City Center
04:58PM 37.4578 -94.9881 228° Southwest 388 447 34,000  Level Kansas City Center
04:59PM 37.3461 -95.0739 211° Southwest 392 451 34,000  Level Kansas City Center
05:00PM 37.2456 -95.1333 205° Southwest 398 458 34,000  Level Kansas City Center
05:01PM 37.1467 -95.1964 207° Southwest 398 458 34,000  Level Kansas City Center
05:02PM 37.0475 -95.2594 207° Southwest 398 458 34,000  Level Kansas City Center
05:03PM 36.9481 -95.3214 206° Southwest 399 459 34,000  Level Kansas City Center
05:04PM 36.8497 -95.3833 207° Southwest 397 457 34,000  Level Kansas City Center
05:05PM 36.7308 -95.4575 207° Southwest 397 457 34,000  Level Kansas City Center
05:07PM 36.6333 -95.5197 207° Southwest 396 456 34,000  Level Kansas City Center
05:08PM 36.5406 -95.5767 206° Southwest 398 458 34,000  Level Kansas City Center
05:09PM 36.4406 -95.6372 206° Southwest 400 460 34,000  Level Kansas City Center
05:10PM 36.3197 -95.7067 205° Southwest 400 460 34,000  Level Kansas City Center
05:11PM 36.1992 -95.6917 174° South 429 494 34,000  Level Kansas City Center
05:12PM 36.0783 -95.6594 168° South 439 505 34,000  Level Kansas City Center
05:13PM 35.9567 -95.6269 168° South 442 509 34,000 -420 Level Kansas City Center
05:14PM 35.8367 -95.5958 168° South 442 509 33,200 -840 Descending Kansas City Center
05:15PM 35.7144 -95.5644 168° South 444 511 32,300 -600 Descending Kansas City Center
05:16PM 35.5667 -95.5264 168° South 448 516 32,000 -180 Descending Kansas City Center
05:17PM 35.4669 -95.5044 170° South 448 516 32,000  Level Fort Worth Center
05:18PM 35.3458 -95.5072 181° South 448 516 32,000  Level Fort Worth Center
05:19PM 35.2231 -95.5128 182° South 442 509 32,000  Level Fort Worth Center
05:20PM 35.1019 -95.5153 181° South 437 503 32,000  Level Fort Worth Center
05:21PM 34.9789 -95.5181 181° South 437 503 32,000  Level Fort Worth Center
05:22PM 34.8581 -95.5258 183° South 437 503 32,000 -120 Level Fort Worth Center
05:23PM 34.7439 -95.5611 194° South 427 491 31,800 -960 Descending Fort Worth Center
05:24PM 34.6364 -95.6192 204° Southwest 427 491 30,100 -1,920 Descending Fort Worth Center
05:25PM 34.5286 -95.6767 204° Southwest 427 491 28,000 -2,220 Descending Fort Worth Center
05:26PM 34.4317 -95.7567 214° Southwest 427 491 25,700 -2,220 Descending Fort Worth Center
05:27PM 34.3239 -95.8067 201° Southwest 420 483 23,600 -2,040 Descending Fort Worth Center
05:28PM 34.2306 -95.8661 208° Southwest 398 458 21,700 -1,800 Descending Fort Worth Center
05:29PM 34.1353 -95.9156 203° Southwest 387 445 20,100 -1,620 Descending Fort Worth Center
05:30PM 34.0583 -95.9519 201° Southwest 365 420 18,500 -1,500 Descending Fort Worth Center
05:31PM 33.9672 -95.9986 203° Southwest 347 399 17,100 -1,800 Descending Fort Worth Center
05:32PM 33.8822 -96.0425 203° Southwest 347 399 14,900 -2,340 Descending Fort Worth Center
05:33PM 33.7947 -96.0789 199° South 341 392 12,500 -1,980 Descending Fort Worth Center
05:34PM 33.6992 -96.1253 202° Southwest 341 392 11,000 -1,020 Descending Fort Worth Center
05:35PM 33.6244 -96.1636 203° Southwest 334 384 10,500 -540 Descending Fort Worth Center
05:36PM 33.5289 -96.2100 202° Southwest 329 379 10,000 -360 Descending Fort Worth Center
05:37PM 33.4583 -96.2433 202° Southwest 324 373 9,800 -540 Descending Fort Worth Center
05:38PM 33.3814 -96.2792 201° Southwest 286 329 9,000 -420 Descending Fort Worth Center
05:39PM 33.3192 -96.3097 202° Southwest 274 315 9,000 -420 Level Fort Worth Center
05:40PM 33.2528 -96.3553 210° Southwest 256 295 8,200 -1,020 Descending Fort Worth Center
05:41PM 33.2197 -96.4178 238° Southwest 251 289 7,000 -1,140 Descending Fort Worth Center
05:42PM 33.1869 -96.4975 244° Southwest 251 289 6,000 -540 Descending Fort Worth Center
05:43PM 33.1667 -96.5647 250° West 251 289 6,000  Level Fort Worth Center
05:44PM 33.1442 -96.6394 250° West 245 282 6,000 -540 Level Fort Worth Center
05:45PM 33.1236 -96.7089 251° West 217 250 5,000 -840 Descending Fort Worth Center
05:45PM 33.1167 -96.7167 223° Southwest 202 232 5,000 -120 Level Dallas / Fort Worth TRACON
05:46PM 33.0833 -96.7667 232° Southwest 193 222 4,900 -540 Descending Dallas / Fort Worth TRACON
05:47PM 33.0333 -96.8167 220° Southwest 196 226 4,000 -960 Descending Dallas / Fort Worth TRACON
05:48PM 33.0000 -96.8500 220° Southwest 191 220 3,000 -900 Descending Dallas / Fort Worth TRACON
05:49PM 32.9667 -96.8833 220° Southwest 156 180 2,200 -540 Descending Dallas / Fort Worth TRACON
05:50PM 32.9333 -96.9333 232° Southwest 166 191 2,000 -240 Descending Dallas / Fort Worth TRACON
05:51PM 32.9000 -96.9167 157° South 166 191 1,800 -420 Descending Dallas / Fort Worth TRACON
05:52PM 32.8667 -96.8833 140° Southeast 137 158 1,200 -720 Descending Dallas / Fort Worth TRACON
05:54PM 32.8471 -96.8518 196° South  Level Estimated
06:01PM 32.8471 -96.8518 196° South  Level Estimated